Time;durP1;ratioP1;P1;durP2;ratioP2;P2;SDS_P1;SDS_P2;PMS_P1;PMS_P2;Temp;Humidity;BMP_temperature;BMP_pressure;BME280_temperature;BME280_humidity;BME280_pressure;Samples;Min_cycle;Max_cycle;Signal;HPM_P1;HPM_P2
2021/03/12 00:00:20;;;;;;;0.20;0.20;;;;;;;-5.26;77.70;101423.09;1795013;79;21409;-48
2021/03/12 00:03:41;;;;;;;0.13;0.13;;;;;;;-5.27;77.67;101425.40;1776248;80;21120;-48
2021/03/12 00:06:41;;;;;;;0.10;0.10;;;;;;;-5.29;77.68;101403.89;1747821;80;21213;-48
2021/03/12 00:09:41;;;;;;;0.10;0.10;;;;;;;-5.29;77.71;101402.09;1806365;79;21621;-48
2021/03/12 00:12:42;;;;;;;0.55;0.53;;;;;;;-5.30;77.79;101399.06;1780725;79;21136;-49
2021/03/12 00:15:42;;;;;;;0.10;0.10;;;;;;;-5.26;77.80;101400.95;1784804;79;21128;-49
2021/03/12 00:18:45;;;;;;;0.30;0.30;;;;;;;-5.25;77.67;101393.28;1765531;81;21178;-48
2021/03/12 00:21:46;;;;;;;0.50;0.50;;;;;;;-5.27;77.69;101384.09;1784551;79;21150;-48
2021/03/12 00:24:47;;;;;;;0.10;0.10;;;;;;;-5.28;77.70;101361.12;1763564;80;21182;-48
2021/03/12 00:27:48;;;;;;;0.80;0.42;;;;;;;-5.27;77.59;101362.78;1778136;79;21558;-48
2021/03/12 00:30:49;;;;;;;0.28;0.28;;;;;;;-5.25;77.66;101360.80;1800570;79;21115;-48
2021/03/12 00:33:49;;;;;;;0.20;0.20;;;;;;;-5.29;77.60;101359.46;1783114;79;21488;-47
2021/03/12 00:36:51;;;;;;;0.55;0.55;;;;;;;-5.31;77.65;101360.61;1795361;79;21880;-48
2021/03/12 00:39:51;;;;;;;0.10;0.10;;;;;;;-5.34;77.71;101357.75;1791071;79;21131;-48
2021/03/12 00:42:52;;;;;;;0.10;0.10;;;;;;;-5.37;77.74;101354.04;1777872;79;21131;-48
2021/03/12 00:45:57;;;;;;;0.10;0.10;;;;;;;-5.39;77.79;101354.69;1787236;79;21458;-48
2021/03/12 00:48:58;;;;;;;0.90;0.60;;;;;;;-5.42;77.82;101345.67;1781152;79;21179;-48
2021/03/12 00:51:59;;;;;;;0.10;0.10;;;;;;;-5.44;77.93;101349.84;1757456;79;21177;-48
2021/03/12 00:55:00;;;;;;;0.33;0.33;;;;;;;-5.47;78.00;101338.63;1799824;79;21146;-48
2021/03/12 00:58:02;;;;;;;0.10;0.10;;;;;;;-5.50;77.96;101333.62;1762884;81;21225;-49
2021/03/12 01:01:02;;;;;;;0.10;0.10;;;;;;;-5.56;78.07;101328.89;1770328;79;21138;-48
2021/03/12 01:04:04;;;;;;;0.10;0.10;;;;;;;-5.59;78.03;101330.53;1803550;79;21134;-48
2021/03/12 01:07:05;;;;;;;0.68;0.68;;;;;;;-5.62;78.44;101329.84;1805685;79;21146;-48
2021/03/12 01:10:05;;;;;;;0.10;0.10;;;;;;;-5.63;78.36;101332.17;1775150;79;22119;-48
2021/03/12 01:13:06;;;;;;;0.10;0.10;;;;;;;-5.63;78.46;101329.52;1781574;79;21154;-48
2021/03/12 01:16:06;;;;;;;0.80;0.80;;;;;;;-5.62;78.41;101329.01;1748416;81;21153;-48
2021/03/12 01:19:07;;;;;;;0.10;0.10;;;;;;;-5.62;78.46;101324.52;1764372;81;21166;-49
2021/03/12 01:22:09;;;;;;;0.45;0.45;;;;;;;-5.62;78.34;101313.86;1796231;79;21138;-48
2021/03/12 01:25:18;;;;;;;0.65;0.50;;;;;;;-5.60;78.42;101315.55;1738433;81;21154;-48
2021/03/12 01:28:19;;;;;;;0.20;0.20;;;;;;;-5.63;78.39;101319.36;1807920;79;21155;-49
2021/03/12 01:31:19;;;;;;;0.10;0.10;;;;;;;-5.63;78.39;101319.36;1791320;78;21111;-47
2021/03/12 01:34:22;;;;;;;0.10;0.10;;;;;;;-5.66;78.22;101317.01;1797882;79;21094;-48
2021/03/12 01:37:23;;;;;;;0.10;0.10;;;;;;;-5.69;78.05;101314.13;1751076;81;21166;-48
2021/03/12 01:40:27;;;;;;;0.10;0.10;;;;;;;-5.69;78.05;101314.13;1778372;79;21158;-48
2021/03/12 01:43:27;;;;;;;0.35;0.35;;;;;;;-5.66;78.07;101321.00;1796245;79;21147;-48
2021/03/12 01:46:29;;;;;;;0.28;0.28;;;;;;;-5.69;78.09;101322.11;1747162;80;21118;-48
2021/03/12 01:49:29;;;;;;;0.10;0.10;;;;;;;-5.69;78.09;101322.11;1798289;78;21798;-48
2021/03/12 01:52:29;;;;;;;0.10;0.10;;;;;;;-5.65;77.89;101321.33;1811779;78;21111;-48
2021/03/12 01:55:40;;;;;;;0.10;0.10;;;;;;;-5.62;77.71;101324.52;1796559;78;21106;-48
2021/03/12 01:58:40;;;;;;;0.10;0.10;;;;;;;-5.57;77.68;101320.56;1733526;81;21154;-48
2021/03/12 02:02:12;;;;;;;0.77;0.43;;;;;;;-5.49;77.55;101328.63;1834329;77;26243;-46
2021/03/12 02:05:22;;;;;;;0.28;0.28;;;;;;;-5.50;77.38;101328.30;1824006;78;21163;-46
2021/03/12 02:08:22;;;;;;;0.15;0.15;;;;;;;-5.48;77.19;101309.00;1811468;78;21617;-46
2021/03/12 02:12:25;;;;;;;0.10;0.10;;;;;;;-5.44;76.93;101303.22;1847169;77;24310;-46
2021/03/12 02:15:38;;;;;;;0.10;0.10;;;;;;;-5.46;76.86;101295.05;1805088;78;21158;-46
2021/03/12 02:19:15;;;;;;;0.33;0.33;;;;;;;-5.45;76.72;101295.38;1780501;80;21139;-46
2021/03/12 02:22:16;;;;;;;0.10;0.10;;;;;;;-5.45;76.42;101294.04;1759832;80;21150;-46
2021/03/12 02:25:20;;;;;;;0.10;0.10;;;;;;;-5.43;75.95;101276.91;1733771;80;21162;-46
2021/03/12 02:28:22;;;;;;;0.17;0.17;;;;;;;-5.42;75.82;101267.09;1763887;79;21150;-46
2021/03/12 02:31:24;;;;;;;0.10;0.10;;;;;;;-5.41;75.53;101260.79;1731037;81;21103;-46
2021/03/12 02:34:26;;;;;;;0.50;0.47;;;;;;;-5.42;75.48;101263.09;1742746;81;21610;-46
2021/03/12 02:37:28;;;;;;;0.10;0.10;;;;;;;-5.43;75.41;101256.11;1732945;82;21196;-46
2021/03/12 02:40:29;;;;;;;0.95;0.95;;;;;;;-5.44;75.05;101261.94;1677635;82;21472;-46
2021/03/12 02:43:29;;;;;;;0.20;0.20;;;;;;;-5.44;75.10;101285.91;1780911;79;21122;-46
2021/03/12 02:46:31;;;;;;;0.10;0.10;;;;;;;-5.44;75.02;101286.38;1764881;79;21121;-46
2021/03/12 02:49:32;;;;;;;0.45;0.45;;;;;;;-5.43;74.61;101292.06;1767209;78;21481;-46
2021/03/12 02:52:32;;;;;;;0.10;0.10;;;;;;;-5.43;74.55;101309.38;1793300;78;21154;-49
2021/03/12 02:55:34;;;;;;;0.30;0.30;;;;;;;-5.45;74.34;101311.36;1774240;78;21146;-48
2021/03/12 02:58:38;;;;;;;0.20;0.20;;;;;;;-5.49;74.05;101308.65;1793299;79;21102;-48
2021/03/12 03:01:40;;;;;;;0.68;0.68;;;;;;;-5.53;74.13;101293.98;1792963;78;21470;-49
2021/03/12 03:05:06;;;;;;;0.20;0.20;;;;;;;-5.58;73.78;101285.62;1836472;77;26943;-46
2021/03/12 03:08:11;;;;;;;0.10;0.10;;;;;;;-5.68;73.81;101292.36;1759846;81;21859;-46
2021/03/12 03:11:13;;;;;;;0.10;0.10;;;;;;;-5.75;73.82;101297.44;1815918;78;21163;-46
2021/03/12 03:14:20;;;;;;;0.10;0.10;;;;;;;-5.82;73.80;101303.03;1767325;79;21177;-46
2021/03/12 03:17:22;;;;;;;0.10;0.10;;;;;;;-5.88;73.75;101290.34;1736163;79;21114;-46
2021/03/12 03:20:22;;;;;;;0.10;0.10;;;;;;;-5.90;73.80;101271.02;1736978;81;21545;-47
2021/03/12 03:23:23;;;;;;;0.10;0.10;;;;;;;-5.94;73.80;101260.34;1772976;79;21564;-46
2021/03/12 03:26:23;;;;;;;0.10;0.10;;;;;;;-5.95;73.75;101248.05;1739844;81;21224;-46
2021/03/12 03:29:23;;;;;;;0.10;0.10;;;;;;;-5.95;73.64;101263.52;1732884;82;21670;-46
2021/03/12 03:32:24;;;;;;;0.10;0.10;;;;;;;-5.92;73.58;101259.68;1815986;78;21122;-46
2021/03/12 03:35:24;;;;;;;0.10;0.10;;;;;;;-5.89;73.50;101234.08;1764175;78;21431;-46
2021/03/12 03:38:24;;;;;;;0.20;0.20;;;;;;;-5.87;73.20;101223.63;1789197;78;21150;-46
2021/03/12 03:41:25;;;;;;;0.17;0.17;;;;;;;-5.83;73.27;101218.84;1795519;78;21143;-47
2021/03/12 03:44:31;;;;;;;;;;;;;;;-5.82;72.95;101204.53;1774526;78;21161;-46
2021/03/12 03:47:33;;;;;;;0.10;0.10;;;;;;;-5.81;72.43;101192.91;1812095;78;20262;-46
2021/03/12 03:50:35;;;;;;;0.10;0.10;;;;;;;-5.81;72.43;101192.91;1778446;78;21138;-46
2021/03/12 03:53:35;;;;;;;0.10;0.10;;;;;;;-5.79;72.23;101191.41;1818094;78;21604;-46
2021/03/12 03:56:36;;;;;;;0.15;0.15;;;;;;;-5.77;72.39;101184.11;1802224;78;21162;-46
2021/03/12 03:59:36;;;;;;;0.20;0.20;;;;;;;-5.79;71.89;101166.95;1793796;78;21230;-46
2021/03/12 04:02:40;;;;;;;0.50;0.47;;;;;;;-5.79;71.82;101176.27;1792765;78;21107;-46
2021/03/12 04:05:41;;;;;;;0.10;0.10;;;;;;;-5.81;71.47;101182.27;1738459;79;21099;-46
2021/03/12 04:08:42;;;;;;;0.10;0.10;;;;;;;-5.82;71.20;101176.58;1766007;79;21126;-46
2021/03/12 04:11:42;;;;;;;0.30;0.30;;;;;;;-5.81;70.60;101168.09;1767870;79;21757;-46
2021/03/12 04:14:46;;;;;;;0.20;0.20;;;;;;;-5.80;70.28;101185.25;1757287;80;21140;-45
2021/03/12 04:17:47;;;;;;;0.13;0.13;;;;;;;-5.80;70.15;101190.58;1747417;81;21122;-47
2021/03/12 04:20:48;;;;;;;0.35;0.35;;;;;;;-5.79;69.97;101196.23;1693985;84;21569;-46
2021/03/12 04:23:48;;;;;;;0.17;0.17;;;;;;;-5.79;69.60;101204.72;1733769;81;21700;-47
2021/03/12 04:26:49;;;;;;;0.98;0.23;;;;;;;-5.78;69.57;101207.23;1765046;80;21427;-47
2021/03/12 04:29:50;;;;;;;0.10;0.10;;;;;;;-5.76;69.49;101207.92;1742222;80;21165;-47
2021/03/12 04:32:51;;;;;;;0.10;0.10;;;;;;;-5.77;69.08;101199.58;1770261;80;21126;-47
2021/03/12 04:35:55;;;;;;;0.30;0.30;;;;;;;-5.77;68.87;101190.27;1744919;80;21157;-48
2021/03/12 04:38:56;;;;;;;0.10;0.10;;;;;;;-5.76;68.62;101201.73;1762013;81;21123;-47
2021/03/12 04:41:56;;;;;;;0.10;0.10;;;;;;;-5.77;68.06;101188.93;1746750;79;21153;-47
2021/03/12 04:44:57;;;;;;;0.40;0.40;;;;;;;-5.76;68.32;101178.64;1773427;79;21597;-47
2021/03/12 04:48:04;;;;;;;0.98;0.98;;;;;;;-5.77;67.52;101180.11;1773353;79;21146;-48
2021/03/12 04:51:07;;;;;;;0.10;0.10;;;;;;;-5.75;67.38;101172.31;1780421;79;21142;-47
2021/03/12 04:54:07;;;;;;;1.20;0.75;;;;;;;-5.74;67.35;101161.98;1784554;79;21160;-47
2021/03/12 04:57:08;;;;;;;0.10;0.10;;;;;;;-5.72;67.37;101152.03;1766832;79;21162;-47
2021/03/12 05:00:13;;;;;;;0.47;0.35;;;;;;;-5.69;67.01;101171.67;1779933;79;21586;-47
2021/03/12 05:03:27;;;;;;;0.10;0.10;;;;;;;-5.65;66.93;101162.90;1788719;79;21153;-47
2021/03/12 05:06:27;;;;;;;0.20;0.20;;;;;;;-5.62;66.60;101158.08;1796135;78;21151;-47
2021/03/12 05:09:29;;;;;;;0.25;0.25;;;;;;;-5.58;66.54;101153.80;1793279;78;21507;-47
2021/03/12 05:12:32;;;;;;;0.10;0.10;;;;;;;-5.56;66.05;101174.42;1818612;78;21126;-47
2021/03/12 05:15:36;;;;;;;0.93;0.30;;;;;;;-5.55;65.82;101178.28;1816843;78;21611;-47
2021/03/12 05:18:36;;;;;;;0.82;0.82;;;;;;;-5.54;65.48;101180.44;1774396;79;21139;-47
2021/03/12 05:21:38;;;;;;;0.85;0.62;;;;;;;-5.51;65.05;101189.47;1756365;81;21158;-47
2021/03/12 05:24:39;;;;;;;0.10;0.10;;;;;;;-5.49;64.95;101176.80;1733084;81;21573;-47
2021/03/12 05:27:42;;;;;;;0.10;0.10;;;;;;;-5.46;64.52;101173.85;1779311;79;21173;-47
2021/03/12 05:30:42;;;;;;;0.25;0.25;;;;;;;-5.43;65.08;101162.87;1743502;78;21176;-47
2021/03/12 05:33:42;;;;;;;0.55;0.55;;;;;;;-5.38;64.53;101151.75;1760456;79;21172;-47
2021/03/12 05:36:44;;;;;;;0.25;0.25;;;;;;;-5.34;64.59;101145.95;1792030;79;21161;-47
2021/03/12 05:39:44;;;;;;;0.10;0.10;;;;;;;-5.29;64.46;101142.31;1804262;78;21127;-47
2021/03/12 05:42:45;;;;;;;0.00;0.00;;;;;;;-5.23;64.28;101155.48;1781772;79;21175;-47
2021/03/12 05:45:46;;;;;;;0.10;0.10;;;;;;;-5.17;63.82;101155.34;1746244;80;21438;-47
2021/03/12 05:48:48;;;;;;;0.10;0.10;;;;;;;-5.12;63.29;101162.36;1757603;80;21168;-47
2021/03/12 05:51:50;;;;;;;0.10;0.10;;;;;;;-5.06;63.61;101165.73;1773289;79;21136;-47
2021/03/12 05:54:51;;;;;;;0.88;0.47;;;;;;;-4.96;63.46;101170.44;1765998;79;21145;-47
2021/03/12 05:57:52;;;;;;;0.30;0.30;;;;;;;-4.91;62.80;101169.97;1722599;81;21151;-47
2021/03/12 06:00:53;;;;;;;0.10;0.10;;;;;;;-4.88;62.24;101164.30;1767281;78;21143;-47
2021/03/12 06:03:55;;;;;;;0.10;0.10;;;;;;;-4.84;62.50;101185.16;1817093;78;21154;-47
2021/03/12 06:06:56;;;;;;;0.20;0.20;;;;;;;-4.78;63.19;101175.67;1799593;78;21142;-46
2021/03/12 06:09:57;;;;;;;0.20;0.20;;;;;;;-4.69;62.81;101195.22;1776849;78;21095;-46
2021/03/12 06:12:58;;;;;;;0.30;0.30;;;;;;;-4.61;62.78;101201.39;1822939;78;21170;-47
2021/03/12 06:15:58;;;;;;;1.07;0.30;;;;;;;-4.56;61.79;101204.91;1763169;79;21147;-47
2021/03/12 06:19:26;;;;;;;0.10;0.10;;;;;;;-4.54;61.75;101197.09;1794982;79;21150;-47
2021/03/12 06:22:30;;;;;;;0.10;0.10;;;;;;;-4.52;61.23;101194.27;1738820;79;21179;-47
2021/03/12 06:25:33;;;;;;;0.10;0.10;;;;;;;-4.50;61.85;101185.61;1799788;78;21139;-46
2021/03/12 06:28:35;;;;;;;0.10;0.10;;;;;;;-4.45;62.13;101179.29;1810535;78;21166;-47
2021/03/12 06:31:38;;;;;;;0.10;0.10;;;;;;;-4.41;62.14;101190.45;1787544;80;21605;-47
2021/03/12 06:34:40;;;;;;;0.15;0.15;;;;;;;-4.38;61.83;101185.61;1824494;78;21689;-47
2021/03/12 06:38:16;;;;;;;0.47;0.47;;;;;;;-4.27;60.70;101199.67;1849599;77;27665;-48
2021/03/12 06:41:44;;;;;;;0.10;0.10;;;;;;;-4.33;59.92;101196.66;1819312;78;21584;-48
2021/03/12 06:44:47;;;;;;;0.25;0.25;;;;;;;-4.30;59.40;101197.30;1793480;79;22079;-48
2021/03/12 06:47:48;;;;;;;0.35;0.35;;;;;;;-4.26;58.96;101210.66;1756903;79;21158;-48
2021/03/12 06:50:53;;;;;;;0.00;0.00;;;;;;;-4.21;58.48;101202.49;1774973;79;21592;-48
2021/03/12 06:53:55;;;;;;;0.20;0.20;;;;;;;-4.14;57.57;101206.69;1784692;79;21606;-48
2021/03/12 06:57:00;;;;;;;0.17;0.17;;;;;;;-4.10;57.78;101190.69;1773313;79;21146;-48
2021/03/12 07:00:13;;;;;;;0.30;0.30;;;;;;;-4.07;56.02;101179.67;1787487;79;21679;-48
2021/03/12 07:03:35;;;;;;;0.30;0.30;;;;;;;-4.09;55.72;101167.48;1731392;79;21655;-48
2021/03/12 07:06:50;;;;;;;0.10;0.10;;;;;;;-4.11;55.27;101146.28;1797430;78;21469;-48
2021/03/12 07:10:02;;;;;;;0.28;0.28;;;;;;;-4.06;56.15;101142.62;1789397;79;21142;-48
2021/03/12 07:13:05;;;;;;;0.10;0.10;;;;;;;-3.97;55.05;101152.30;1804206;78;21127;-48
2021/03/12 07:16:07;;;;;;;0.10;0.10;;;;;;;-3.92;54.90;101144.63;1810594;78;21553;-48
2021/03/12 07:19:11;;;;;;;0.72;0.55;;;;;;;-3.89;54.42;101152.30;1783850;79;21129;-48
2021/03/12 07:22:11;;;;;;;0.10;0.10;;;;;;;-3.85;54.42;101138.63;1777514;79;21110;-48
2021/03/12 07:25:14;;;;;;;0.10;0.10;;;;;;;-3.79;53.85;101141.95;1777856;79;21110;-46
2021/03/12 07:28:19;;;;;;;0.93;0.65;;;;;;;-3.75;53.28;101140.62;1777300;79;21166;-46
2021/03/12 07:31:42;;;;;;;0.35;0.35;;;;;;;-3.70;53.24;101140.95;1781076;79;21194;-45
2021/03/12 07:34:43;;;;;;;0.10;0.10;;;;;;;-3.60;53.59;101158.13;1747343;79;21135;-47
2021/03/12 07:37:48;;;;;;;0.10;0.10;;;;;;;-3.48;53.46;101157.60;1762080;81;21186;-46
2021/03/12 07:40:50;;;;;;;0.10;0.10;;;;;;;-3.37;52.13;101170.27;1763270;81;21126;-45
2021/03/12 07:43:58;;;;;;;0.10;0.10;;;;;;;-3.34;52.81;101175.27;1739295;81;21101;-46
2021/03/12 07:47:01;;;;;;;0.20;0.20;;;;;;;-3.26;52.34;101169.92;1755322;81;21158;-46
2021/03/12 07:50:02;;;;;;;0.40;0.25;;;;;;;-3.19;52.51;101176.25;1761790;81;21612;-46
2021/03/12 07:53:02;;;;;;;0.20;0.20;;;;;;;-3.14;52.29;101181.92;1697791;82;21142;-46
2021/03/12 07:56:05;;;;;;;0.10;0.10;;;;;;;-3.01;52.01;101191.25;1782464;80;21150;-45
2021/03/12 07:59:18;;;;;;;0.10;0.10;;;;;;;-2.87;51.82;101191.84;1780332;80;21151;-46
2021/03/12 08:02:24;;;;;;;0.47;0.47;;;;;;;-2.72;51.68;101182.10;1766032;80;21131;-49
2021/03/12 08:05:45;;;;;;;0.20;0.20;;;;;;;-2.61;51.00;101180.36;1773477;79;21127;-48
2021/03/12 08:08:47;;;;;;;0.10;0.10;;;;;;;-2.56;50.46;101179.01;1773178;80;21157;-48
2021/03/12 08:11:59;;;;;;;0.20;0.20;;;;;;;-2.52;50.57;101165.11;1771042;80;21153;-48
2021/03/12 08:15:31;;;;;;;0.10;0.10;;;;;;;-2.41;50.85;101150.48;1776850;80;21118;-48
2021/03/12 08:18:35;;;;;;;0.28;0.28;;;;;;;-2.30;50.72;101148.75;1783073;79;21138;-48
2021/03/12 08:21:53;;;;;;;0.10;0.10;;;;;;;-2.16;50.86;101138.58;1773395;80;21150;-48
2021/03/12 08:24:57;;;;;;;0.10;0.10;;;;;;;-2.01;48.75;101127.09;1769438;80;21122;-48
2021/03/12 08:28:21;;;;;;;0.10;0.10;;;;;;;-1.95;49.37;101122.37;1762840;80;21126;-48
2021/03/12 08:31:47;;;;;;;0.20;0.20;;;;;;;-1.87;48.59;101112.91;1787752;80;21202;-48
2021/03/12 08:34:50;;;;;;;0.40;0.40;;;;;;;-1.84;47.52;101088.42;1780961;79;21166;-48
2021/03/12 08:38:35;;;;;;;0.10;0.10;;;;;;;-1.87;48.20;101079.42;1836634;77;29603;-46
2021/03/12 08:41:54;;;;;;;0.10;0.10;;;;;;;-1.89;48.43;101089.48;1790558;79;21122;-46
2021/03/12 08:45:20;;;;;;;0.33;0.23;;;;;;;-1.51;49.14;101066.64;1865400;75;29558;-46
2021/03/12 08:48:29;;;;;;;0.10;0.10;;;;;;;-1.30;48.66;101065.39;1827014;77;21138;-46
2021/03/12 08:51:33;;;;;;;0.68;0.68;;;;;;;-1.03;47.54;101065.73;1790437;78;21500;-46
2021/03/12 08:54:37;;;;;;;0.10;0.10;;;;;;;-0.72;47.81;101051.20;1827380;77;21812;-46
2021/03/12 08:57:39;;;;;;;0.35;0.35;;;;;;;-0.38;47.65;101044.31;1810853;77;21107;-45
2021/03/12 09:00:39;;;;;;;0.10;0.10;;;;;;;-0.07;45.93;101048.83;1816992;77;21126;-45
2021/03/12 09:03:48;;;;;;;0.33;0.33;;;;;;;0.05;46.40;101019.57;1829484;76;21118;-45
2021/03/12 09:07:08;;;;;;;0.10;0.10;;;;;;;0.15;45.22;101011.16;1824925;77;21114;-45
2021/03/12 09:10:35;;;;;;;0.10;0.10;;;;;;;0.06;44.67;101001.58;1827641;77;21426;-45
2021/03/12 09:13:44;;;;;;;9.80;0.40;;;;;;;-0.03;45.02;100996.34;1845794;77;21161;-45
2021/03/12 09:16:45;;;;;;;0.20;0.20;;;;;;;-0.06;45.77;100972.56;1730339;80;21547;-45
2021/03/12 09:19:48;;;;;;;0.55;0.28;;;;;;;-0.19;45.31;100973.82;1774595;80;21099;-45
2021/03/12 09:23:02;;;;;;;0.10;0.10;;;;;;;-0.33;46.15;100955.42;1781305;80;21558;-45
2021/03/12 09:26:04;;;;;;;0.20;0.20;;;;;;;-0.31;46.40;100939.13;1736328;81;21140;-45
2021/03/12 09:29:10;;;;;;;0.70;0.30;;;;;;;-0.22;46.70;100929.38;1771524;80;21457;-46
2021/03/12 09:32:13;;;;;;;0.10;0.10;;;;;;;-0.15;46.59;100929.41;1771234;80;21115;-46
2021/03/12 09:35:28;;;;;;;0.25;0.15;;;;;;;-0.10;47.16;100918.07;1762998;79;21565;-46
2021/03/12 09:38:41;;;;;;;0.00;0.00;;;;;;;-0.03;47.78;100921.63;1784166;78;21435;-46
2021/03/12 09:41:46;;;;;;;1.10;0.68;;;;;;;0.09;48.00;100917.88;1725932;81;21150;-46
2021/03/12 09:44:48;;;;;;;0.10;0.10;;;;;;;0.07;47.80;100903.80;1760325;78;21387;-46
2021/03/12 09:47:55;;;;;;;0.10;0.10;;;;;;;0.02;47.75;100906.27;1798455;78;21104;-46
2021/03/12 09:50:56;;;;;;;0.30;0.30;;;;;;;0.02;48.55;100908.95;1762314;78;21501;-45
2021/03/12 09:53:57;;;;;;;0.20;0.20;;;;;;;-0.05;48.43;100886.06;1762343;80;21130;-46
2021/03/12 09:57:02;;;;;;;0.23;0.23;;;;;;;-0.13;48.89;100891.61;1772760;79;21147;-45
2021/03/12 10:00:02;;;;;;;1.50;1.40;;;;;;;-0.12;49.87;100863.22;1788135;79;21111;-46
2021/03/12 10:03:06;;;;;;;0.10;0.10;;;;;;;-0.09;49.25;100875.42;1783992;79;21111;-46
2021/03/12 10:06:18;;;;;;;0.20;0.20;;;;;;;-0.07;49.19;100852.70;1785400;79;21417;-46
2021/03/12 10:09:29;;;;;;;0.10;0.10;;;;;;;-0.01;48.93;100855.09;1759797;80;21650;-46
2021/03/12 10:12:32;;;;;;;0.13;0.13;;;;;;;-0.03;49.19;100843.71;1755230;80;21175;-47
2021/03/12 10:15:43;;;;;;;0.55;0.53;;;;;;;-0.08;49.76;100848.86;1777829;80;21147;-46
2021/03/12 10:18:49;;;;;;;1.57;0.60;;;;;;;-0.09;50.29;100846.69;1755651;80;21103;-46
2021/03/12 10:21:54;;;;;;;0.25;0.25;;;;;;;-0.04;51.08;100842.06;1786124;79;21160;-46
2021/03/12 10:25:04;;;;;;;7.37;0.47;;;;;;;-0.03;50.21;100831.62;1786709;79;21135;-49
2021/03/12 10:28:15;;;;;;;0.10;0.10;;;;;;;-0.11;50.60;100829.94;1786630;79;21582;-49
2021/03/12 10:31:15;;;;;;;0.10;0.10;;;;;;;-0.17;51.37;100824.53;1784962;80;21165;-48
2021/03/12 10:34:16;;;;;;;0.13;0.13;;;;;;;-0.19;51.37;100822.06;1794927;79;21419;-49
2021/03/12 10:37:23;;;;;;;1.22;0.40;;;;;;;-0.23;51.50;100824.81;1814559;79;21099;-48
2021/03/12 10:40:23;;;;;;;0.13;0.13;;;;;;;-0.28;52.14;100816.01;1792003;79;21179;-49
2021/03/12 10:43:30;;;;;;;1.75;1.37;;;;;;;-0.32;51.79;100821.97;1785207;79;21119;-48
2021/03/12 10:46:33;;;;;;;1.07;0.75;;;;;;;-0.40;52.28;100840.94;1761182;81;21146;-49
2021/03/12 10:49:33;;;;;;;0.10;0.10;;;;;;;-0.50;52.53;100831.38;1773781;80;22024;-48
2021/03/12 10:52:38;;;;;;;0.10;0.10;;;;;;;-0.56;52.99;100838.89;1786906;79;21178;-48
2021/03/12 10:55:44;;;;;;;0.10;0.10;;;;;;;-0.59;52.65;100837.95;1767138;80;22142;-48
2021/03/12 10:58:45;;;;;;;0.10;0.10;;;;;;;-0.65;53.34;100834.69;1762368;80;21191;-48
2021/03/12 11:01:48;;;;;;;0.30;0.20;;;;;;;-0.69;53.61;100835.61;1762440;80;21167;-49
2021/03/12 11:04:50;;;;;;;0.13;0.13;;;;;;;-0.67;54.51;100830.02;1762389;80;21537;-48
2021/03/12 11:07:51;;;;;;;0.30;0.30;;;;;;;-0.68;54.19;100829.20;1776159;80;21135;-49
2021/03/12 11:10:53;;;;;;;0.10;0.10;;;;;;;-0.73;54.03;100830.83;1771627;80;21146;-49
2021/03/12 11:13:57;;;;;;;0.15;0.15;;;;;;;-0.74;54.49;100823.78;1794846;78;21194;-48
2021/03/12 11:16:59;;;;;;;0.10;0.10;;;;;;;-0.69;54.71;100816.00;1765133;80;21171;-48
2021/03/12 11:20:01;;;;;;;0.20;0.20;;;;;;;-0.63;54.92;100811.69;1757197;80;21911;-48
2021/03/12 11:23:01;;;;;;;0.30;0.30;;;;;;;-0.60;55.45;100805.41;1777691;80;21871;-48
2021/03/12 11:26:02;;;;;;;0.47;0.42;;;;;;;-0.54;55.21;100816.70;1771291;80;21506;-49
2021/03/12 11:29:03;;;;;;;0.10;0.10;;;;;;;-0.51;54.95;100805.57;1778591;80;21481;-48
2021/03/12 11:32:04;;;;;;;0.10;0.10;;;;;;;-0.54;55.32;100784.50;1770819;80;21116;-48
2021/03/12 11:35:06;;;;;;;0.08;0.08;;;;;;;-0.55;55.20;100788.70;1763795;80;21115;-48
2021/03/12 11:38:06;;;;;;;0.15;0.15;;;;;;;-0.57;55.30;100790.27;1753342;81;21443;-48
2021/03/12 11:41:08;;;;;;;0.10;0.10;;;;;;;-0.57;55.57;100779.53;1761412;80;21190;-49
2021/03/12 11:44:08;;;;;;;0.35;0.28;;;;;;;-0.63;55.50;100796.41;1755969;80;21199;-48
2021/03/12 11:47:09;;;;;;;0.10;0.10;;;;;;;-0.66;55.74;100794.13;1762946;80;21131;-48
2021/03/12 11:50:12;;;;;;;0.10;0.10;;;;;;;-0.67;55.99;100774.52;1762270;80;21442;-46
2021/03/12 11:53:14;;;;;;;0.10;0.10;;;;;;;-0.64;56.03;100769.27;1773962;80;21170;-46
2021/03/12 11:56:14;;;;;;;0.10;0.10;;;;;;;-0.65;56.06;100774.30;1763850;80;21128;-46
2021/03/12 11:59:15;;;;;;;0.30;0.30;;;;;;;-0.71;56.66;100783.16;1766285;80;21454;-46
2021/03/12 12:02:15;;;;;;;0.10;0.10;;;;;;;-0.75;57.32;100779.20;1765016;80;21143;-46
2021/03/12 12:05:17;;;;;;;0.20;0.20;;;;;;;-0.77;57.89;100779.37;1762051;80;21143;-46
2021/03/12 12:08:17;;;;;;;0.20;0.20;;;;;;;-0.77;58.90;100769.17;1771698;80;21606;-46
2021/03/12 12:11:18;;;;;;;0.10;0.10;;;;;;;-0.78;59.26;100777.73;1790372;80;21233;-47
2021/03/12 12:14:21;;;;;;;0.10;0.10;;;;;;;-0.79;59.65;100802.08;1762266;79;21162;-46
2021/03/12 12:17:21;;;;;;;0.25;0.25;;;;;;;-0.84;61.63;100788.41;1759812;80;21124;-46
2021/03/12 12:20:22;;;;;;;0.00;0.00;;;;;;;-0.95;64.57;100783.91;1774664;80;21095;-45
2021/03/12 12:23:23;;;;;;;0.10;0.10;;;;;;;-1.10;65.64;100779.16;1761570;81;21186;-45
2021/03/12 12:26:23;;;;;;;0.10;0.10;;;;;;;-1.23;66.91;100783.91;1753074;80;21114;-46
2021/03/12 12:29:24;;;;;;;1.65;0.62;;;;;;;-1.27;66.61;100775.11;1780483;78;21151;-46
2021/03/12 12:32:26;;;;;;;0.23;0.23;;;;;;;-1.32;66.99;100780.53;1768598;80;21155;-47
2021/03/12 12:35:26;;;;;;;0.42;0.42;;;;;;;-1.36;67.80;100775.25;1771163;80;21996;-46
2021/03/12 12:38:29;;;;;;;0.25;0.25;;;;;;;-1.39;68.31;100767.57;1758766;80;21162;-45
2021/03/12 12:41:29;;;;;;;0.40;0.40;;;;;;;-1.42;68.37;100773.33;1771511;80;21180;-46
2021/03/12 12:44:30;;;;;;;0.28;0.28;;;;;;;-1.46;68.72;100764.00;1756731;81;21146;-46
2021/03/12 12:47:31;;;;;;;0.10;0.10;;;;;;;-1.48;68.79;100754.02;1731876;81;21582;-46
2021/03/12 12:50:31;;;;;;;0.30;0.30;;;;;;;-1.51;69.20;100759.73;1736951;81;21207;-46
2021/03/12 12:53:31;;;;;;;0.68;0.68;;;;;;;-1.54;69.88;100745.38;1737384;81;21163;-46
2021/03/12 12:56:32;;;;;;;0.10;0.10;;;;;;;-1.61;70.72;100745.31;1727575;83;21152;-46
2021/03/12 12:59:33;;;;;;;0.00;0.00;;;;;;;-1.66;71.99;100753.62;1735581;81;21146;-46
2021/03/12 13:02:35;;;;;;;0.10;0.10;;;;;;;-1.70;72.12;100739.78;1731171;81;23494;-47
2021/03/12 13:05:35;;;;;;;0.28;0.28;;;;;;;-1.67;72.74;100747.95;1739965;81;21146;-46
2021/03/12 13:08:36;;;;;;;1.10;0.70;;;;;;;-1.65;73.12;100733.34;1738778;81;21486;-46
2021/03/12 13:11:38;;;;;;;0.03;0.03;;;;;;;-1.69;73.13;100738.75;1726409;81;21192;-45
2021/03/12 13:14:40;;;;;;;1.07;1.05;;;;;;;-1.72;73.78;100736.98;1758112;80;21557;-46
2021/03/12 13:17:40;;;;;;;0.10;0.10;;;;;;;-1.80;74.20;100738.77;1754472;81;21446;-46
2021/03/12 13:20:53;;;;;;;0.95;0.47;;;;;;;-1.89;74.50;100726.51;1727659;83;21127;-46
2021/03/12 13:23:55;;;;;;;0.10;0.10;;;;;;;-1.90;74.93;100728.02;1734673;81;21143;-47
2021/03/12 13:26:55;;;;;;;0.10;0.10;;;;;;;-1.96;75.49;100714.38;1728261;81;21180;-46
2021/03/12 13:29:55;;;;;;;0.80;0.75;;;;;;;-2.00;75.64;100715.80;1727221;83;21167;-46
2021/03/12 13:32:56;;;;;;;0.93;0.72;;;;;;;-2.02;75.81;100714.33;1728167;81;21147;-46
2021/03/12 13:35:56;;;;;;;0.13;0.13;;;;;;;-2.03;76.13;100705.47;1740476;81;21462;-46
2021/03/12 13:38:57;;;;;;;0.15;0.15;;;;;;;-2.02;76.53;100694.25;1735669;82;21143;-46
2021/03/12 13:42:02;;;;;;;0.20;0.20;;;;;;;-2.03;76.72;100681.37;1735590;82;21478;-46
2021/03/12 13:45:00;;;;;;;0.13;0.13;;;;;;;-2.05;77.52;100686.57;1748227;81;21557;-46
2021/03/12 13:48:00;;;;;;;0.45;0.45;;;;;;;-2.07;77.62;100683.28;1762313;81;21154;-45
2021/03/12 13:51:01;;;;;;;0.10;0.10;;;;;;;-2.04;78.00;100684.23;1764825;80;21427;-46
2021/03/12 13:54:02;;;;;;;0.33;0.33;;;;;;;-2.05;78.35;100679.88;1766260;80;21127;-46
2021/03/12 13:57:03;;;;;;;0.10;0.10;;;;;;;-2.06;78.71;100678.23;1793371;80;21183;-46
2021/03/12 14:00:04;;;;;;;0.10;0.10;;;;;;;-2.07;78.96;100673.91;1783823;80;21158;-46
2021/03/12 14:03:06;;;;;;;0.60;0.53;;;;;;;-2.08;79.93;100673.57;1774398;79;21132;-46
2021/03/12 14:06:07;;;;;;;0.03;0.03;;;;;;;-2.16;80.45;100663.81;1768278;79;21142;-46
2021/03/12 14:09:13;;;;;;;0.45;0.45;;;;;;;-2.20;81.00;100665.20;1767862;81;21135;-46
2021/03/12 14:12:14;;;;;;;0.17;0.17;;;;;;;-2.24;81.21;100662.09;1765511;80;21166;-46
2021/03/12 14:15:16;;;;;;;0.10;0.10;;;;;;;-2.26;81.34;100656.09;1781257;80;21031;-46
2021/03/12 14:18:18;;;;;;;0.33;0.33;;;;;;;-2.28;81.38;100656.79;1784177;80;21162;-45